createdAt,value
2018-05-15T00:00:37.115Z,13.01
2018-05-15T00:01:36.943Z,12.91
2018-05-15T00:02:36.944Z,12.90
2018-05-15T00:03:36.964Z,12.86
2018-05-15T00:04:37.214Z,12.88
2018-05-15T00:05:36.892Z,12.80
2018-05-15T00:06:36.926Z,12.69
2018-05-15T00:07:36.956Z,12.73
2018-05-15T00:08:36.842Z,12.72
2018-05-15T00:09:36.828Z,12.72
2018-05-15T00:10:37.115Z,12.71
2018-05-15T00:11:36.812Z,12.73
2018-05-15T00:12:36.837Z,12.63
2018-05-15T00:13:36.891Z,12.69
2018-05-15T00:14:36.753Z,12.66
2018-05-15T00:15:36.745Z,12.63
2018-05-15T00:16:37.028Z,12.61
2018-05-15T00:17:36.707Z,12.53
2018-05-15T00:18:36.753Z,12.48
2018-05-15T00:20:36.766Z,12.41
2018-05-15T00:21:36.747Z,12.43
2018-05-15T00:22:36.948Z,12.40
2018-05-15T00:24:37.022Z,12.40
2018-05-15T00:25:36.702Z,12.33
2018-05-15T00:26:36.572Z,12.32
2018-05-15T00:27:36.864Z,12.26
2018-05-15T00:28:36.841Z,12.28
2018-05-15T00:29:36.525Z,12.28
2018-05-15T00:30:36.773Z,12.28
2018-05-15T00:33:36.467Z,12.23
2018-05-15T00:34:36.455Z,12.23
2018-05-15T00:35:36.735Z,12.22
2018-05-15T00:36:36.517Z,12.17
2018-05-15T00:37:36.512Z,12.14
2018-05-15T00:38:36.495Z,12.17
2018-05-15T00:39:36.380Z,12.11
2018-05-15T00:40:36.360Z,12.07
2018-05-15T00:41:36.355Z,12.13
2018-05-15T00:42:36.634Z,12.04
2018-05-15T00:44:36.356Z,12.00
2018-05-15T00:45:36.389Z,11.91
2018-05-15T00:46:36.281Z,11.91
2018-05-15T00:47:36.257Z,11.85
2018-05-15T00:48:36.241Z,11.79
2018-05-15T00:49:36.532Z,11.69
2018-05-15T00:51:36.296Z,11.67
2018-05-15T00:52:36.219Z,11.56
2018-05-15T00:53:36.163Z,11.55
2018-05-15T00:54:36.146Z,11.54
2018-05-15T00:55:36.124Z,11.52
2018-05-15T00:56:36.409Z,11.56
2018-05-15T00:57:36.147Z,11.51
2018-05-15T00:58:36.192Z,11.51
2018-05-15T00:59:36.086Z,11.52
2018-05-15T01:00:36.053Z,11.52
2018-05-15T01:01:36.041Z,11.54
2018-05-15T01:02:36.021Z,11.54
2018-05-15T01:03:36.460Z,11.49
2018-05-15T01:04:35.988Z,11.45
2018-05-15T01:05:35.967Z,11.43
2018-05-15T01:07:35.944Z,11.45
2018-05-15T01:08:35.922Z,11.45
2018-05-15T01:09:35.961Z,11.46
2018-05-15T01:10:36.338Z,11.40
2018-05-15T01:12:35.859Z,11.34
2018-05-15T01:13:35.846Z,11.41
2018-05-15T01:14:35.829Z,11.38
2018-05-15T01:15:35.807Z,11.37
2018-05-15T01:16:35.905Z,11.40
2018-05-15T01:17:36.126Z,11.34
2018-05-15T01:18:35.860Z,11.27
2018-05-15T01:19:35.748Z,11.19
2018-05-15T01:20:35.727Z,11.20
2018-05-15T01:21:35.718Z,11.19
2018-05-15T01:22:35.771Z,11.16
2018-05-15T01:23:36.036Z,11.15
2018-05-15T01:25:35.655Z,11.09
2018-05-15T01:26:35.644Z,10.98
2018-05-15T01:27:35.616Z,10.95
2018-05-15T01:29:36.035Z,10.94
2018-05-15T01:30:35.583Z,10.83
2018-05-15T01:31:35.578Z,10.83
2018-05-15T01:32:35.534Z,10.72
2018-05-15T01:33:35.520Z,10.87
2018-05-15T01:34:35.509Z,10.73
2018-05-15T01:35:35.838Z,10.80
2018-05-15T01:37:35.509Z,10.75
2018-05-15T01:38:35.489Z,10.67
2018-05-15T01:39:35.420Z,10.68
2018-05-15T01:41:35.696Z,10.68
2018-05-15T01:42:35.380Z,10.61
2018-05-15T01:43:35.456Z,10.58
2018-05-15T01:44:35.501Z,10.58
2018-05-15T01:45:35.428Z,10.55
2018-05-15T01:46:35.565Z,10.60
2018-05-15T01:47:35.594Z,10.67
2018-05-15T01:49:35.314Z,10.57
2018-05-15T01:50:35.297Z,10.54
2018-05-15T01:52:35.267Z,10.42
2018-05-15T01:53:35.197Z,10.45
2018-05-15T01:55:35.614Z,10.46
2018-05-15T01:56:35.141Z,10.52
2018-05-15T01:57:35.129Z,10.52
2018-05-15T01:58:35.108Z,10.48
2018-05-15T02:01:35.476Z,10.54
2018-05-15T02:02:35.099Z,10.45
2018-05-15T02:03:35.081Z,10.42
2018-05-15T02:04:35.021Z,10.31
2018-05-15T02:05:34.992Z,10.31
2018-05-15T02:06:35.083Z,10.35
2018-05-15T02:07:35.015Z,10.28
2018-05-15T02:08:35.304Z,10.36
2018-05-15T02:09:34.931Z,10.35
2018-05-15T02:10:34.921Z,10.36
2018-05-15T02:11:34.897Z,10.36
2018-05-15T02:12:34.881Z,10.31
2018-05-15T02:14:35.191Z,10.31
2018-05-15T02:15:34.875Z,10.31
2018-05-15T02:16:34.830Z,10.41
2018-05-15T02:17:34.801Z,10.18
2018-05-15T02:18:34.771Z,10.24
2018-05-15T02:19:34.759Z,10.18
2018-05-15T02:20:34.796Z,10.14
2018-05-15T02:21:35.078Z,10.18
2018-05-15T02:22:34.759Z,10.12
2018-05-15T02:23:34.690Z,9.99
2018-05-15T02:25:34.657Z,9.96
2018-05-15T02:26:34.789Z,9.93
2018-05-15T02:27:34.625Z,9.88
2018-05-15T02:28:34.904Z,9.83
2018-05-15T02:29:34.584Z,9.80
2018-05-15T02:30:34.605Z,9.78
2018-05-15T02:31:34.560Z,9.83
2018-05-15T02:32:34.582Z,9.77
2018-05-15T02:33:34.567Z,9.83
2018-05-15T02:35:34.837Z,9.93
2018-05-15T02:36:34.466Z,9.87
2018-05-15T02:38:34.438Z,9.96
2018-05-15T02:39:34.469Z,10.03
2018-05-15T02:42:34.716Z,10.05
2018-05-15T02:44:34.391Z,10.08
2018-05-15T02:45:34.412Z,10.02
2018-05-15T02:46:34.308Z,9.98
2018-05-15T02:47:34.276Z,10.09
2018-05-15T02:48:34.266Z,10.05
2018-05-15T02:49:34.552Z,10.10
2018-05-15T02:51:34.259Z,10.01
2018-05-15T02:52:34.239Z,10.10
2018-05-15T02:53:34.376Z,10.14
2018-05-15T02:54:34.159Z,10.14
2018-05-15T02:55:34.461Z,10.16
2018-05-15T02:56:34.129Z,10.17
2018-05-15T02:57:34.103Z,10.20
2018-05-15T02:58:34.093Z,10.17
2018-05-15T02:59:34.120Z,10.28
2018-05-15T03:00:34.109Z,10.26
2018-05-15T03:01:34.395Z,10.20
2018-05-15T03:02:34.020Z,10.20
2018-05-15T03:03:34.013Z,10.24
2018-05-15T03:04:33.979Z,10.18
2018-05-15T03:05:34.013Z,10.21
2018-05-15T03:06:34.001Z,10.16
2018-05-15T03:08:34.211Z,10.06
2018-05-15T03:09:33.894Z,10.05
2018-05-15T03:10:33.886Z,10.06
2018-05-15T03:11:33.953Z,9.96
2018-05-15T03:12:33.900Z,9.94
2018-05-15T03:13:33.875Z,9.98
2018-05-15T03:14:34.117Z,9.91
2018-05-15T03:15:33.794Z,9.96
2018-05-15T03:16:33.873Z,9.88
2018-05-15T03:17:33.806Z,9.91
2018-05-15T03:18:33.800Z,9.93
2018-05-15T03:19:33.780Z,9.77
2018-05-15T03:20:34.005Z,9.84
2018-05-15T03:21:33.693Z,9.94
2018-05-15T03:23:33.804Z,9.83
2018-05-15T03:24:33.687Z,9.81
2018-05-15T03:25:33.672Z,9.75
2018-05-15T03:27:33.880Z,9.75
2018-05-15T03:28:33.664Z,9.75
2018-05-15T03:29:33.604Z,9.80
2018-05-15T03:30:33.593Z,9.77
2018-05-15T03:31:33.563Z,9.75
2018-05-15T03:32:33.508Z,9.75
2018-05-15T03:33:33.486Z,9.81
2018-05-15T03:34:33.764Z,9.73
2018-05-15T03:36:33.482Z,9.75
2018-05-15T03:37:33.464Z,9.72
2018-05-15T03:38:33.404Z,9.75
2018-05-15T03:39:33.374Z,9.78
2018-05-15T03:40:33.354Z,9.80
2018-05-15T03:41:33.636Z,9.81
2018-05-15T03:42:33.379Z,9.75
2018-05-15T03:43:33.354Z,9.80
2018-05-15T03:44:33.285Z,9.83
2018-05-15T03:45:33.267Z,9.80
2018-05-15T03:46:33.255Z,9.78
2018-05-15T03:47:33.343Z,9.84
2018-05-15T03:48:33.574Z,9.80
2018-05-15T03:49:33.247Z,9.77
2018-05-15T03:50:33.338Z,9.77
2018-05-15T03:51:33.166Z,9.87
2018-05-15T03:52:33.158Z,9.88
2018-05-15T03:53:33.136Z,9.90
2018-05-15T03:54:33.167Z,9.96
2018-05-15T03:55:33.513Z,9.93
2018-05-15T03:56:33.081Z,9.80
2018-05-15T03:57:33.364Z,9.70
2018-05-15T03:58:33.046Z,9.65
2018-05-15T04:00:33.122Z,9.54
2018-05-15T04:01:33.045Z,9.37
2018-05-15T04:02:33.326Z,9.42
2018-05-15T04:03:32.962Z,9.40
2018-05-15T04:04:32.948Z,9.19
2018-05-15T04:05:32.919Z,9.32
2018-05-15T04:06:32.964Z,9.24
2018-05-15T04:07:32.940Z,9.24
2018-05-15T04:08:32.948Z,9.19
2018-05-15T04:09:33.158Z,9.29
2018-05-15T04:10:32.837Z,9.32
2018-05-15T04:11:32.820Z,9.26
2018-05-15T04:12:32.799Z,9.29
2018-05-15T04:13:32.839Z,9.41
2018-05-15T04:14:33.217Z,9.40
2018-05-15T04:15:32.811Z,9.42
2018-05-15T04:16:33.040Z,9.47
2018-05-15T04:17:32.716Z,9.54
2018-05-15T04:18:32.793Z,9.57
2018-05-15T04:19:32.680Z,9.60
2018-05-15T04:20:32.704Z,9.67
2018-05-15T04:21:32.695Z,9.70
2018-05-15T04:22:33.083Z,9.77
2018-05-15T04:24:32.590Z,9.78
2018-05-15T04:25:32.692Z,9.91
2018-05-15T04:26:32.552Z,10.01
2018-05-15T04:27:32.582Z,10.01
2018-05-15T04:28:32.864Z,10.05
2018-05-15T04:29:32.555Z,10.14
2018-05-15T04:30:32.491Z,10.12
2018-05-15T04:31:32.464Z,10.21
2018-05-15T04:32:32.443Z,10.24
2018-05-15T04:33:32.477Z,10.38
2018-05-15T04:34:32.774Z,10.28
2018-05-15T04:35:32.408Z,10.43
2018-05-15T04:36:32.392Z,10.48
2018-05-15T04:37:32.369Z,10.48
2018-05-15T04:38:32.361Z,10.57
2018-05-15T04:39:32.381Z,10.67
2018-05-15T04:40:33.013Z,10.65
2018-05-15T04:41:32.288Z,10.70
2018-05-15T04:42:32.277Z,10.76
2018-05-15T04:43:32.291Z,10.67
2018-05-15T04:44:32.237Z,10.73
2018-05-15T04:45:32.226Z,10.78
2018-05-15T04:46:32.662Z,10.90
2018-05-15T04:47:32.189Z,10.98
2018-05-15T04:48:32.176Z,10.98
2018-05-15T04:49:32.155Z,11.09
2018-05-15T04:50:32.140Z,11.09
2018-05-15T04:51:32.128Z,11.15
2018-05-15T04:53:32.461Z,11.18
2018-05-15T04:54:32.130Z,11.27
2018-05-15T04:55:32.123Z,11.28
2018-05-15T04:56:32.046Z,11.37
2018-05-15T04:57:32.023Z,11.46
2018-05-15T04:58:32.006Z,11.52
2018-05-15T04:59:32.338Z,11.66
2018-05-15T05:00:32.026Z,11.58
2018-05-15T05:01:32.004Z,11.71
2018-05-15T05:02:31.938Z,11.88
2018-05-15T05:03:31.916Z,11.79
2018-05-15T05:04:31.909Z,11.91
2018-05-15T05:05:31.939Z,11.97
2018-05-15T05:06:32.216Z,12.10
2018-05-15T05:07:31.856Z,12.13
2018-05-15T05:08:31.839Z,12.23
2018-05-15T05:09:31.917Z,12.29
2018-05-15T05:10:31.807Z,12.33
2018-05-15T05:11:31.842Z,12.33
2018-05-15T05:12:31.821Z,12.47
2018-05-15T05:13:32.051Z,12.43
2018-05-15T05:15:31.717Z,12.59
2018-05-15T05:16:31.710Z,12.61
2018-05-15T05:17:31.842Z,12.66
2018-05-15T05:18:31.677Z,12.68
2018-05-15T05:19:31.956Z,12.68
2018-05-15T05:20:31.899Z,12.76
2018-05-15T05:21:31.632Z,12.93
2018-05-15T05:23:31.596Z,13.04
2018-05-15T05:24:31.586Z,13.04
2018-05-15T05:26:32.003Z,13.17
2018-05-15T05:28:31.576Z,13.29
2018-05-15T05:29:31.506Z,13.36
2018-05-15T05:30:31.488Z,13.36
2018-05-15T05:31:31.469Z,13.58
2018-05-15T05:32:31.506Z,13.57
2018-05-15T05:33:31.787Z,13.61
2018-05-15T05:34:31.419Z,13.68
2018-05-15T05:35:31.412Z,13.78
2018-05-15T05:36:31.393Z,13.79
2018-05-15T05:37:31.391Z,14.00
2018-05-15T05:38:31.522Z,13.98
2018-05-15T05:39:31.716Z,14.03
2018-05-15T05:40:33.743Z,14.19
2018-05-15T05:41:31.328Z,14.27
2018-05-15T05:42:31.305Z,14.26
2018-05-15T05:43:31.288Z,14.36
2018-05-15T05:45:31.568Z,14.49
2018-05-15T05:46:31.429Z,14.53
2018-05-15T05:47:31.333Z,14.59
2018-05-15T05:48:31.235Z,14.56
2018-05-15T05:49:31.201Z,14.67
2018-05-15T05:50:31.189Z,14.79
2018-05-15T05:51:31.467Z,14.78
2018-05-15T05:52:31.388Z,14.71
2018-05-15T05:53:32.608Z,14.86
2018-05-15T05:54:31.574Z,14.92
2018-05-15T05:55:31.124Z,14.93
2018-05-15T05:56:31.096Z,15.08
2018-05-15T05:57:31.093Z,15.14
2018-05-15T05:58:31.436Z,15.20
2018-05-15T05:59:31.110Z,15.25
2018-05-15T06:00:31.095Z,15.27
2018-05-15T06:01:31.030Z,15.38
2018-05-15T06:02:31.023Z,15.51
2018-05-15T06:03:30.996Z,15.56
2018-05-15T06:04:31.343Z,15.63
2018-05-15T06:05:31.040Z,15.65
2018-05-15T06:06:30.956Z,15.66
2018-05-15T06:07:30.941Z,15.80
2018-05-15T06:09:30.934Z,15.88
2018-05-15T06:10:31.347Z,15.93
2018-05-15T06:11:30.959Z,16.08
2018-05-15T06:12:30.936Z,16.06
2018-05-15T06:13:30.858Z,16.14
2018-05-15T06:14:30.846Z,16.16
2018-05-15T06:15:30.840Z,16.21
2018-05-15T06:16:31.126Z,16.34
2018-05-15T06:17:31.001Z,16.24
2018-05-15T06:18:30.799Z,16.33
2018-05-15T06:19:30.801Z,16.28
2018-05-15T06:20:31.324Z,16.37
2018-05-15T06:21:30.867Z,16.43
2018-05-15T06:22:31.184Z,16.47
2018-05-15T06:23:30.902Z,16.44
2018-05-15T06:24:30.988Z,16.52
2018-05-15T06:25:30.725Z,16.67
2018-05-15T06:26:30.696Z,16.72
2018-05-15T06:27:30.994Z,16.82
2018-05-15T06:28:30.963Z,16.79
2018-05-15T06:29:30.716Z,16.94
2018-05-15T06:30:30.741Z,16.97
2018-05-15T06:31:30.684Z,16.94
2018-05-15T06:32:30.777Z,17.07
2018-05-15T06:33:30.610Z,17.12
2018-05-15T06:34:30.594Z,17.28
2018-05-15T06:35:30.948Z,17.39
2018-05-15T06:36:30.615Z,17.46
2018-05-15T06:37:30.601Z,17.53
2018-05-15T06:38:30.624Z,17.68
2018-05-15T06:39:30.531Z,17.81
2018-05-15T06:40:30.613Z,17.88
2018-05-15T06:41:30.816Z,17.91
2018-05-15T06:42:30.561Z,17.94
2018-05-15T06:43:30.579Z,18.11
2018-05-15T06:44:30.564Z,18.05
2018-05-15T06:45:30.459Z,18.13
2018-05-15T06:46:30.440Z,18.20
2018-05-15T06:47:30.734Z,18.17
2018-05-15T06:48:30.565Z,18.12
2018-05-15T06:49:30.475Z,18.23
2018-05-15T06:50:30.459Z,18.24
2018-05-15T06:51:30.385Z,18.18
2018-05-15T06:52:30.372Z,18.33
2018-05-15T06:53:30.656Z,18.33
2018-05-15T06:54:30.341Z,18.49
2018-05-15T06:55:30.443Z,18.49
2018-05-15T06:56:30.508Z,18.46
2018-05-15T06:57:30.314Z,18.52
2018-05-15T06:58:30.302Z,18.57
2018-05-15T06:59:30.319Z,18.67
2018-05-15T07:00:30.582Z,18.70
2018-05-15T07:01:30.314Z,18.83
2018-05-15T07:02:30.305Z,18.74
2018-05-15T07:03:30.365Z,18.94
2018-05-15T07:04:30.231Z,19.09
2018-05-15T07:05:30.217Z,19.20
2018-05-15T07:06:30.505Z,19.24
2018-05-15T07:07:30.204Z,19.30
2018-05-15T07:08:30.244Z,19.32
2018-05-15T07:09:30.933Z,19.38
2018-05-15T07:11:30.149Z,19.50
2018-05-15T07:12:30.449Z,19.60
2018-05-15T07:13:30.136Z,19.71
2018-05-15T07:14:30.186Z,19.74
2018-05-15T07:15:30.178Z,19.78
2018-05-15T07:16:30.162Z,19.82
2018-05-15T07:17:30.097Z,19.81
2018-05-15T07:18:30.383Z,19.89
2018-05-15T07:19:30.129Z,19.90
2018-05-15T07:20:30.058Z,20.00
2018-05-15T07:21:30.105Z,20.11
2018-05-15T07:22:30.194Z,20.09
2018-05-15T07:23:30.132Z,20.12
2018-05-15T07:24:30.064Z,20.42
2018-05-15T07:25:30.409Z,20.48
2018-05-15T07:26:29.997Z,20.70
2018-05-15T07:27:33.192Z,20.93
2018-05-15T07:28:29.988Z,21.19
2018-05-15T07:29:30.013Z,21.50
2018-05-15T07:30:29.959Z,21.75
2018-05-15T07:31:30.245Z,22.03
2018-05-15T07:32:29.938Z,22.30
2018-05-15T07:33:29.973Z,22.62
2018-05-15T07:34:30.323Z,22.98
2018-05-15T07:35:29.900Z,23.41
2018-05-15T07:36:29.900Z,23.56
2018-05-15T07:37:30.198Z,23.61
2018-05-15T07:38:29.883Z,23.54
2018-05-15T07:39:29.864Z,23.44
2018-05-15T07:40:29.910Z,23.13
2018-05-15T07:41:29.900Z,23.21
2018-05-15T07:42:29.845Z,23.06
2018-05-15T07:43:30.137Z,23.03
2018-05-15T07:44:29.823Z,22.81
2018-05-15T07:45:29.819Z,22.58
2018-05-15T07:46:29.909Z,22.71
2018-05-15T07:47:29.848Z,22.92
2018-05-15T07:48:29.839Z,22.99
2018-05-15T07:49:30.036Z,22.92
2018-05-15T07:50:29.788Z,22.99
2018-05-15T07:51:29.778Z,23.10
2018-05-15T07:52:29.800Z,23.22
2018-05-15T07:53:29.793Z,23.31
2018-05-15T07:54:29.750Z,23.37
2018-05-15T07:55:30.085Z,23.55
2018-05-15T07:56:29.725Z,23.79
2018-05-15T07:57:29.720Z,23.86
2018-05-15T07:58:29.751Z,24.16
2018-05-15T07:59:29.743Z,24.38
2018-05-15T08:01:29.994Z,24.68
2018-05-15T08:02:29.673Z,24.93
2018-05-15T08:03:29.669Z,25.27
2018-05-15T08:04:29.768Z,25.45
2018-05-15T08:05:29.705Z,26.16
2018-05-15T08:06:29.707Z,26.24
2018-05-15T08:07:29.635Z,26.56
2018-05-15T08:08:29.935Z,27.19
2018-05-15T08:09:29.619Z,27.31
2018-05-15T08:10:29.620Z,27.38
2018-05-15T08:11:29.663Z,27.50
2018-05-15T08:12:33.756Z,27.94
2018-05-15T08:13:29.600Z,27.97
2018-05-15T08:14:29.605Z,28.03
2018-05-15T08:15:29.882Z,28.42
2018-05-15T08:16:29.590Z,28.54
2018-05-15T08:17:29.572Z,28.43
2018-05-15T08:18:29.625Z,28.50
2018-05-15T08:19:32.249Z,28.22
2018-05-15T08:20:29.569Z,28.00
2018-05-15T08:21:29.856Z,27.95
2018-05-15T08:22:29.637Z,27.54
2018-05-15T08:23:29.542Z,27.23
2018-05-15T08:24:29.541Z,27.37
2018-05-15T08:25:29.592Z,27.45
2018-05-15T08:26:29.580Z,27.53
2018-05-15T08:27:29.886Z,27.73
2018-05-15T08:28:29.526Z,27.83
2018-05-15T08:29:29.520Z,27.91
2018-05-15T08:30:29.516Z,27.82
2018-05-15T08:31:29.578Z,27.32
2018-05-15T08:32:29.764Z,27.73
2018-05-15T08:33:29.807Z,27.95
2018-05-15T08:34:29.506Z,28.17
2018-05-15T08:35:29.504Z,28.37
2018-05-15T08:36:29.509Z,28.84
2018-05-15T08:37:29.567Z,28.93
2018-05-15T08:38:29.545Z,29.03
2018-05-15T08:39:29.848Z,29.49
2018-05-15T08:40:29.553Z,29.80
2018-05-15T08:41:29.473Z,29.95
2018-05-15T08:42:29.494Z,29.89
2018-05-15T08:43:29.472Z,29.46
2018-05-15T08:44:29.475Z,29.29
2018-05-15T08:45:29.971Z,29.33
2018-05-15T08:46:29.618Z,29.59
2018-05-15T08:47:29.467Z,29.73
2018-05-15T08:48:30.424Z,29.84
2018-05-15T08:49:29.460Z,29.93
2018-05-15T08:50:29.464Z,29.87
2018-05-15T08:51:29.800Z,29.77
2018-05-15T08:52:29.503Z,29.00
2018-05-15T08:53:29.565Z,29.17
2018-05-15T08:54:29.444Z,29.63
2018-05-15T08:55:29.445Z,29.91
2018-05-15T08:56:29.449Z,30.13
2018-05-15T08:57:29.741Z,30.28
2018-05-15T08:58:30.203Z,30.45
2018-05-15T08:59:29.444Z,30.51
2018-05-15T09:00:29.440Z,30.48
2018-05-15T09:01:29.443Z,30.78
2018-05-15T09:02:29.442Z,30.75
2018-05-15T09:03:29.754Z,30.85
2018-05-15T09:04:29.511Z,31.20
2018-05-15T09:05:29.546Z,31.15
2018-05-15T09:06:29.482Z,31.07
2018-05-15T09:07:29.438Z,31.45
2018-05-15T09:08:29.441Z,31.63
2018-05-15T09:09:29.740Z,31.74
2018-05-15T09:10:29.486Z,31.94
2018-05-15T09:11:29.485Z,32.14
2018-05-15T09:12:29.439Z,32.17
2018-05-15T09:13:29.437Z,31.81
2018-05-15T09:14:29.429Z,31.46
2018-05-15T09:15:30.396Z,31.12
2018-05-15T09:16:29.527Z,31.15
2018-05-15T09:17:29.585Z,31.12
2018-05-15T09:18:29.432Z,31.20
2018-05-15T09:19:29.509Z,31.41
2018-05-15T09:20:29.493Z,30.62
2018-05-15T09:21:29.796Z,30.56
2018-05-15T09:22:29.484Z,30.46
2018-05-15T09:23:29.447Z,29.99
2018-05-15T09:24:29.439Z,30.26
2018-05-15T09:25:29.433Z,30.52
2018-05-15T09:26:29.493Z,30.70
2018-05-15T09:27:29.838Z,30.80
2018-05-15T09:28:29.495Z,30.53
2018-05-15T09:29:29.444Z,31.04
2018-05-15T09:30:29.432Z,31.39
2018-05-15T09:31:29.508Z,31.78
2018-05-15T09:32:29.582Z,31.71
2018-05-15T09:33:29.841Z,31.71
2018-05-15T09:34:29.522Z,32.06
2018-05-15T09:35:29.451Z,32.11
2018-05-15T09:36:29.500Z,31.61
2018-05-15T09:37:29.443Z,31.48
2018-05-15T09:38:29.994Z,31.10
2018-05-15T09:39:29.899Z,30.52
2018-05-15T09:40:29.496Z,30.51
2018-05-15T09:41:29.451Z,29.96
2018-05-15T09:42:29.442Z,30.18
2018-05-15T09:43:29.521Z,30.55
2018-05-15T09:44:29.514Z,30.83
2018-05-15T09:45:29.801Z,31.23
2018-05-15T09:46:29.495Z,31.10
2018-05-15T09:47:29.448Z,30.77
2018-05-15T09:48:29.454Z,31.07
2018-05-15T09:49:29.469Z,31.26
2018-05-15T09:50:29.474Z,31.64
2018-05-15T09:51:29.811Z,31.27
2018-05-15T09:52:29.500Z,31.10
2018-05-15T09:53:29.458Z,31.15
2018-05-15T09:54:29.453Z,31.45
2018-05-15T09:55:29.452Z,31.57
2018-05-15T09:56:29.460Z,31.49
2018-05-15T09:57:29.913Z,31.38
2018-05-15T09:58:29.518Z,31.04
2018-05-15T09:59:29.518Z,30.83
2018-05-15T10:00:29.474Z,31.07
2018-05-15T10:01:29.474Z,31.63
2018-05-15T10:02:29.462Z,31.66
2018-05-15T10:03:29.772Z,31.84
2018-05-15T10:04:29.521Z,32.06
2018-05-15T10:05:30.177Z,31.68
2018-05-15T10:06:29.472Z,31.27
2018-05-15T10:07:29.475Z,31.48
2018-05-15T10:08:29.479Z,31.70
2018-05-15T10:09:29.783Z,32.14
2018-05-15T10:10:29.477Z,32.28
2018-05-15T10:11:29.537Z,32.99
2018-05-15T10:12:30.122Z,32.88
2018-05-15T10:13:29.536Z,32.14
2018-05-15T10:14:29.482Z,32.19
2018-05-15T10:15:29.795Z,31.64
2018-05-15T10:16:29.490Z,31.49
2018-05-15T10:17:29.519Z,30.67
2018-05-15T10:18:30.940Z,31.11
2018-05-15T10:19:29.491Z,31.38
2018-05-15T10:20:29.500Z,31.52
2018-05-15T10:21:29.804Z,31.75
2018-05-15T10:22:29.511Z,32.04
2018-05-15T10:23:29.508Z,32.20
2018-05-15T10:24:30.407Z,32.58
2018-05-15T10:25:29.509Z,32.77
2018-05-15T10:26:29.508Z,32.87
2018-05-15T10:27:29.810Z,33.45
2018-05-15T10:28:29.530Z,33.71
2018-05-15T10:29:29.511Z,33.73
2018-05-15T10:30:29.562Z,33.89
2018-05-15T10:31:29.572Z,33.44
2018-05-15T10:32:29.562Z,33.13
2018-05-15T10:33:29.815Z,32.80
2018-05-15T10:34:29.528Z,33.09
2018-05-15T10:35:29.522Z,33.41
2018-05-15T10:36:29.536Z,33.74
2018-05-15T10:37:29.575Z,34.07
2018-05-15T10:38:29.578Z,33.95
2018-05-15T10:39:29.901Z,33.82
2018-05-15T10:40:29.538Z,33.52
2018-05-15T10:41:29.548Z,32.58
2018-05-15T10:42:31.543Z,31.70
2018-05-15T10:43:29.603Z,30.49
2018-05-15T10:44:29.604Z,29.76
2018-05-15T10:45:29.905Z,28.91
2018-05-15T10:46:29.555Z,28.69
2018-05-15T10:47:29.607Z,29.52
2018-05-15T10:48:29.684Z,29.76
2018-05-15T10:49:29.563Z,30.33
2018-05-15T10:50:29.716Z,30.80
2018-05-15T10:51:29.908Z,31.49
2018-05-15T10:52:29.566Z,31.29
2018-05-15T10:53:29.589Z,31.44
2018-05-15T10:54:29.812Z,31.90
2018-05-15T10:55:29.565Z,32.58
2018-05-15T10:56:29.617Z,31.70
2018-05-15T10:57:29.917Z,30.58
2018-05-15T10:58:29.579Z,30.73
2018-05-15T10:59:29.605Z,31.49
2018-05-15T11:00:29.580Z,32.08
2018-05-15T11:01:29.571Z,32.58
2018-05-15T11:02:29.639Z,31.51
2018-05-15T11:03:29.925Z,30.56
2018-05-15T11:04:29.639Z,29.91
2018-05-15T11:05:29.852Z,29.44
2018-05-15T11:06:29.588Z,28.87
2018-05-15T11:07:29.584Z,28.65
2018-05-15T11:08:29.659Z,28.38
2018-05-15T11:09:29.937Z,28.15
2018-05-15T11:11:29.690Z,28.47
2018-05-15T11:12:29.693Z,28.43
2018-05-15T11:13:29.580Z,28.69
2018-05-15T11:14:29.646Z,28.98
2018-05-15T11:15:33.098Z,30.28
2018-05-15T11:16:29.597Z,30.78
2018-05-15T11:17:29.586Z,31.41
2018-05-15T11:18:29.589Z,31.42
2018-05-15T11:19:29.600Z,30.45
2018-05-15T11:20:29.870Z,30.43
2018-05-15T11:21:29.938Z,30.14
2018-05-15T11:22:29.640Z,29.46
2018-05-15T11:23:32.008Z,28.87
2018-05-15T11:24:29.602Z,28.01
2018-05-15T11:25:29.578Z,27.54
2018-05-15T11:26:29.596Z,27.10
2018-05-15T11:27:29.904Z,26.98
2018-05-15T11:28:29.591Z,26.97
2018-05-15T11:29:29.686Z,26.86
2018-05-15T11:30:29.641Z,27.12
2018-05-15T11:31:29.589Z,28.66
2018-05-15T11:32:29.600Z,29.63
2018-05-15T11:34:29.876Z,31.76
2018-05-15T11:35:29.683Z,32.32
2018-05-15T11:36:29.627Z,32.55
2018-05-15T11:37:29.637Z,32.90
2018-05-15T11:38:29.761Z,33.29
2018-05-15T11:39:29.570Z,32.05
2018-05-15T11:40:29.889Z,30.75
2018-05-15T11:41:29.711Z,29.92
2018-05-15T11:42:29.674Z,29.33
2018-05-15T11:43:29.839Z,28.96
2018-05-15T11:44:29.586Z,28.80
2018-05-15T11:45:29.571Z,29.96
2018-05-15T11:46:29.873Z,30.75
2018-05-15T11:47:29.605Z,30.58
2018-05-15T11:48:30.047Z,29.74
2018-05-15T11:49:30.761Z,28.77
2018-05-15T11:50:30.169Z,28.81
2018-05-15T11:51:30.451Z,29.37
2018-05-15T11:52:30.496Z,30.58
2018-05-15T11:53:29.587Z,31.49
2018-05-15T11:54:29.582Z,31.66
2018-05-15T11:55:35.292Z,31.19
2018-05-15T11:56:29.680Z,31.01
2018-05-15T11:57:29.584Z,31.89
2018-05-15T11:58:29.877Z,32.53
2018-05-15T11:59:29.577Z,32.88
2018-05-15T12:00:29.576Z,31.74
2018-05-15T12:01:29.724Z,32.13
2018-05-15T12:02:29.607Z,32.58
2018-05-15T12:03:29.587Z,32.65
2018-05-15T12:04:29.876Z,32.64
2018-05-15T12:05:29.636Z,31.82
2018-05-15T12:06:29.970Z,30.68
2018-05-15T12:07:29.747Z,29.73
2018-05-15T12:08:29.782Z,28.96
2018-05-15T12:09:29.749Z,28.30
2018-05-15T12:10:29.933Z,28.03
2018-05-15T12:11:29.838Z,28.03
2018-05-15T12:12:29.591Z,27.63
2018-05-15T12:13:29.586Z,27.27
2018-05-15T12:14:29.592Z,26.88
2018-05-15T12:15:29.599Z,26.53
2018-05-15T12:16:29.615Z,26.43
2018-05-15T12:17:29.948Z,26.31
2018-05-15T12:18:29.694Z,26.30
2018-05-15T12:19:29.596Z,26.30
2018-05-15T12:20:29.592Z,26.39
2018-05-15T12:22:29.579Z,26.36
2018-05-15T12:23:32.238Z,26.28
2018-05-15T12:24:29.777Z,26.21
2018-05-15T12:25:29.577Z,26.31
2018-05-15T12:26:29.577Z,26.38
2018-05-15T12:27:29.577Z,26.42
2018-05-15T12:28:29.576Z,26.56
2018-05-15T12:29:29.925Z,27.01
2018-05-15T12:30:29.613Z,28.56
2018-05-15T12:31:29.565Z,28.96
2018-05-15T12:32:29.563Z,28.96
2018-05-15T12:33:29.561Z,28.91
2018-05-15T12:34:29.557Z,28.80
2018-05-15T12:35:32.261Z,28.56
2018-05-15T12:36:29.562Z,28.37
2018-05-15T12:37:29.549Z,28.20
2018-05-15T12:38:29.549Z,28.03
2018-05-15T12:39:29.540Z,27.82
2018-05-15T12:40:29.541Z,27.82
2018-05-15T12:41:32.357Z,27.66
2018-05-15T12:42:29.537Z,27.61
2018-05-15T12:43:29.548Z,27.40
2018-05-15T12:44:29.535Z,27.25
2018-05-15T12:45:29.522Z,27.05
2018-05-15T12:46:29.523Z,26.89
2018-05-15T12:47:30.082Z,26.65
2018-05-15T12:48:29.604Z,26.58
2018-05-15T12:49:29.517Z,26.53
2018-05-15T12:50:29.508Z,26.30
2018-05-15T12:51:29.512Z,26.28
2018-05-15T12:52:29.509Z,26.16
2018-05-15T12:53:29.854Z,25.98
2018-05-15T12:54:29.552Z,25.86
2018-05-15T12:55:29.500Z,25.89
2018-05-15T12:56:29.492Z,26.00
2018-05-15T12:57:29.489Z,25.95
2018-05-15T12:58:29.492Z,26.45
2018-05-15T12:59:30.382Z,26.58
2018-05-15T13:00:29.475Z,26.95
2018-05-15T13:01:29.471Z,27.16
2018-05-15T13:02:29.462Z,28.10
2018-05-15T13:03:29.460Z,29.50
2018-05-15T13:04:29.606Z,30.53
2018-05-15T13:05:30.065Z,30.64
2018-05-15T13:06:29.502Z,30.17
2018-05-15T13:07:29.530Z,29.77
2018-05-15T13:08:29.516Z,29.37
2018-05-15T13:09:29.447Z,29.02
2018-05-15T13:10:29.445Z,28.56
2018-05-15T13:11:29.791Z,27.94
2018-05-15T13:12:29.490Z,27.12
2018-05-15T13:13:29.485Z,26.86
2018-05-15T13:14:29.423Z,26.52
2018-05-15T13:15:29.423Z,26.39
2018-05-15T13:16:29.425Z,26.21
2018-05-15T13:17:29.468Z,25.98
2018-05-15T13:18:30.018Z,26.03
2018-05-15T13:19:29.473Z,26.07
2018-05-15T13:20:29.409Z,26.19
2018-05-15T13:21:29.415Z,26.19
2018-05-15T13:23:29.400Z,26.19
2018-05-15T13:24:29.887Z,26.21
2018-05-15T13:25:29.456Z,26.11
2018-05-15T13:26:29.392Z,26.15
2018-05-15T13:27:29.384Z,26.08
2018-05-15T13:28:29.378Z,26.00
2018-05-15T13:29:29.367Z,25.82
2018-05-15T13:30:29.713Z,25.66
2018-05-15T13:31:29.470Z,25.26
2018-05-15T13:32:29.361Z,25.18
2018-05-15T13:33:29.354Z,25.16
2018-05-15T13:34:29.359Z,25.06
2018-05-15T13:35:29.485Z,25.06
2018-05-15T13:36:29.793Z,25.04
2018-05-15T13:37:29.335Z,25.00
2018-05-15T13:38:29.324Z,25.12
2018-05-15T13:39:29.378Z,25.19